Burleson, TX

3:30 AM CDT on October 01, 2016 (GMT -0500)
Fort Worth Spinks | | Change Station

Elev 699 ft 32.56 °N, 97.31 °W | Updated 15 minutes ago

Clear
Clear
58 °F
Feels Like 58 °F
N
0
Wind Variable Wind from North

Today
High -- | Low -- °F
--% Chance of Precip.
Yesterday
High -- | Low -- °F
Precip. -- in
Pressure 30.11 in
Visibility 10.0 miles
Clouds Clear
Dew Point 55 °F
Humidity 90%
Rainfall 0.00 in
Snow Depth Not available.
7:23 AM 7:13 PM
New Moon, 0% visible
METAR KFWS 010815Z AUTO 00000KT 10SM CLR 15/13 A3011 RMK AO2 T01450128
Pressure 30.11 in
Visibility 10.0 miles
Clouds Clear
Dew Point 55 °F
Humidity 90%
Rainfall 0.00 in
Snow Depth Not available.
7:23 AM 7:13 PM
New Moon, 0% visible
METAR KFWS 010815Z AUTO 00000KT 10SM CLR 15/13 A3011 RMK AO2 T01450128

10-Day Weather Forecast

Almanac

Astronomy

Oct. 01, 2016 Rise Set
Actual Time
Civil Twilight
Nautical Twilight
Astronomical Twilight
Moon
Length of Visible Light
Length of Day
Tomorrow will be .
, % of the Moon is Illuminated

Today's Extremes

State Highs State Lows

Community

WunderPhotos

Upload Photos

1,942,898 photos uploaded!

WunderBlog® & News

Nearby

Air Quality

  Air Quality AQ Index Pollutant
Not available.

Snow Depth

Station Depth Elevation

Earthquake Activity

City Distance Mag. Time & Date
Minimum magnitude displayed is 2.5.

Coastal Water Temperatures

Place Temperature

Stations

Nearby Weather Stations

Station Location Temp. Windchill Dew Point Humidity Wind Precip. Elev Updated Type
                   

Watches & Warnings

There are currently no watches in effect.